sensor_id;sensor_type;location;lat;lon;timestamp;P1;durP1;ratioP1;P2;durP2;ratioP2
71648;SDS011;59492;45.638;11.714;2022-09-09T00:04:29;3.70;;;1.90;;
71648;SDS011;59492;45.638;11.714;2022-09-09T00:09:48;3.00;;;1.90;;
71648;SDS011;59492;45.638;11.714;2022-09-09T00:12:27;4.10;;;1.90;;
71648;SDS011;59492;45.638;11.714;2022-09-09T00:15:00;2.80;;;2.00;;
71648;SDS011;59492;45.638;11.714;2022-09-09T00:31:34;4.00;;;2.10;;
71648;SDS011;59492;45.638;11.714;2022-09-09T00:34:16;3.00;;;2.10;;
71648;SDS011;59492;45.638;11.714;2022-09-09T00:36:45;4.00;;;2.00;;
71648;SDS011;59492;45.638;11.714;2022-09-09T00:39:23;2.70;;;1.80;;
71648;SDS011;59492;45.638;11.714;2022-09-09T00:44:34;2.90;;;1.90;;
71648;SDS011;59492;45.638;11.714;2022-09-09T00:49:56;3.20;;;2.00;;
71648;SDS011;59492;45.638;11.714;2022-09-09T00:55:33;3.10;;;1.80;;
71648;SDS011;59492;45.638;11.714;2022-09-09T00:58:10;3.30;;;1.90;;
71648;SDS011;59492;45.638;11.714;2022-09-09T01:00:42;3.10;;;1.80;;
71648;SDS011;59492;45.638;11.714;2022-09-09T01:08:26;4.10;;;2.10;;
71648;SDS011;59492;45.638;11.714;2022-09-09T01:11:05;4.10;;;2.20;;
71648;SDS011;59492;45.638;11.714;2022-09-09T01:13:41;2.40;;;2.10;;
71648;SDS011;59492;45.638;11.714;2022-09-09T01:16:08;2.70;;;1.90;;
71648;SDS011;59492;45.638;11.714;2022-09-09T01:18:40;3.00;;;1.90;;
71648;SDS011;59492;45.638;11.714;2022-09-09T01:23:48;4.20;;;1.80;;
71648;SDS011;59492;45.638;11.714;2022-09-09T01:26:37;3.90;;;1.90;;
71648;SDS011;59492;45.638;11.714;2022-09-09T01:29:10;6.20;;;2.10;;
71648;SDS011;59492;45.638;11.714;2022-09-09T01:31:39;4.90;;;2.20;;
71648;SDS011;59492;45.638;11.714;2022-09-09T01:34:11;3.10;;;2.20;;
71648;SDS011;59492;45.638;11.714;2022-09-09T01:36:41;3.20;;;1.90;;
71648;SDS011;59492;45.638;11.714;2022-09-09T01:39:10;3.50;;;1.90;;
71648;SDS011;59492;45.638;11.714;2022-09-09T01:41:37;2.90;;;2.00;;
71648;SDS011;59492;45.638;11.714;2022-09-09T01:44:03;5.10;;;1.90;;
71648;SDS011;59492;45.638;11.714;2022-09-09T01:46:30;3.00;;;1.90;;
71648;SDS011;59492;45.638;11.714;2022-09-09T01:48:55;4.70;;;2.20;;
71648;SDS011;59492;45.638;11.714;2022-09-09T01:51:22;3.00;;;2.10;;
71648;SDS011;59492;45.638;11.714;2022-09-09T01:53:48;4.50;;;2.00;;
71648;SDS011;59492;45.638;11.714;2022-09-09T02:03:47;4.50;;;2.40;;
71648;SDS011;59492;45.638;11.714;2022-09-09T02:06:28;3.50;;;2.20;;
71648;SDS011;59492;45.638;11.714;2022-09-09T02:08:59;4.20;;;2.20;;
71648;SDS011;59492;45.638;11.714;2022-09-09T02:11:29;4.80;;;2.50;;
71648;SDS011;59492;45.638;11.714;2022-09-09T02:16:56;4.40;;;2.40;;
71648;SDS011;59492;45.638;11.714;2022-09-09T02:19:34;4.70;;;2.30;;
71648;SDS011;59492;45.638;11.714;2022-09-09T02:22:04;2.40;;;2.20;;
71648;SDS011;59492;45.638;11.714;2022-09-09T02:24:31;7.00;;;2.70;;
71648;SDS011;59492;45.638;11.714;2022-09-09T02:27:00;4.40;;;2.40;;
71648;SDS011;59492;45.638;11.714;2022-09-09T02:29:30;3.60;;;2.30;;
71648;SDS011;59492;45.638;11.714;2022-09-09T02:32:05;6.00;;;2.50;;
71648;SDS011;59492;45.638;11.714;2022-09-09T02:34:35;4.50;;;2.50;;
71648;SDS011;59492;45.638;11.714;2022-09-09T02:37:06;4.50;;;2.30;;
71648;SDS011;59492;45.638;11.714;2022-09-09T02:39:33;3.80;;;2.20;;
71648;SDS011;59492;45.638;11.714;2022-09-09T02:41:58;4.30;;;2.30;;
71648;SDS011;59492;45.638;11.714;2022-09-09T02:44:24;3.00;;;2.40;;
71648;SDS011;59492;45.638;11.714;2022-09-09T02:49:41;4.90;;;2.90;;
71648;SDS011;59492;45.638;11.714;2022-09-09T02:52:20;5.10;;;2.40;;
71648;SDS011;59492;45.638;11.714;2022-09-09T02:54:57;7.10;;;2.40;;
71648;SDS011;59492;45.638;11.714;2022-09-09T02:57:30;2.50;;;2.30;;
71648;SDS011;59492;45.638;11.714;2022-09-09T02:59:59;6.20;;;2.30;;
71648;SDS011;59492;45.638;11.714;2022-09-09T03:02:26;3.20;;;2.30;;
71648;SDS011;59492;45.638;11.714;2022-09-09T03:04:52;3.40;;;2.40;;
71648;SDS011;59492;45.638;11.714;2022-09-09T03:07:18;7.70;;;2.50;;
71648;SDS011;59492;45.638;11.714;2022-09-09T03:09:44;4.30;;;2.10;;
71648;SDS011;59492;45.638;11.714;2022-09-09T03:12:10;3.00;;;2.30;;
71648;SDS011;59492;45.638;11.714;2022-09-09T03:14:37;3.50;;;2.30;;
71648;SDS011;59492;45.638;11.714;2022-09-09T03:17:03;5.60;;;2.50;;
71648;SDS011;59492;45.638;11.714;2022-09-09T03:19:30;4.60;;;2.30;;
71648;SDS011;59492;45.638;11.714;2022-09-09T03:21:56;3.50;;;2.10;;
71648;SDS011;59492;45.638;11.714;2022-09-09T03:24:23;2.90;;;2.40;;
71648;SDS011;59492;45.638;11.714;2022-09-09T03:26:50;6.00;;;2.50;;
71648;SDS011;59492;45.638;11.714;2022-09-09T03:29:16;5.80;;;2.20;;
71648;SDS011;59492;45.638;11.714;2022-09-09T03:31:45;4.20;;;2.40;;
71648;SDS011;59492;45.638;11.714;2022-09-09T03:34:11;4.60;;;2.20;;
71648;SDS011;59492;45.638;11.714;2022-09-09T03:36:38;4.20;;;2.40;;
71648;SDS011;59492;45.638;11.714;2022-09-09T03:39:06;4.90;;;2.20;;
71648;SDS011;59492;45.638;11.714;2022-09-09T03:41:31;5.90;;;2.40;;
71648;SDS011;59492;45.638;11.714;2022-09-09T03:43:57;2.90;;;2.20;;
71648;SDS011;59492;45.638;11.714;2022-09-09T03:46:23;2.60;;;1.90;;
71648;SDS011;59492;45.638;11.714;2022-09-09T03:48:50;5.60;;;2.20;;
71648;SDS011;59492;45.638;11.714;2022-09-09T03:51:17;3.00;;;2.10;;
71648;SDS011;59492;45.638;11.714;2022-09-09T03:53:43;3.80;;;2.20;;
71648;SDS011;59492;45.638;11.714;2022-09-09T03:56:09;3.10;;;2.10;;
71648;SDS011;59492;45.638;11.714;2022-09-09T03:58:35;4.70;;;2.20;;
71648;SDS011;59492;45.638;11.714;2022-09-09T04:01:06;4.10;;;2.20;;
71648;SDS011;59492;45.638;11.714;2022-09-09T04:03:38;5.40;;;2.20;;
71648;SDS011;59492;45.638;11.714;2022-09-09T04:06:04;4.50;;;2.20;;
71648;SDS011;59492;45.638;11.714;2022-09-09T04:08:32;3.10;;;2.10;;
71648;SDS011;59492;45.638;11.714;2022-09-09T04:10:57;3.10;;;2.10;;
71648;SDS011;59492;45.638;11.714;2022-09-09T04:13:24;3.90;;;2.20;;
71648;SDS011;59492;45.638;11.714;2022-09-09T04:15:54;4.90;;;2.30;;
71648;SDS011;59492;45.638;11.714;2022-09-09T04:18:29;4.30;;;2.60;;
71648;SDS011;59492;45.638;11.714;2022-09-09T04:20:59;3.70;;;2.30;;
71648;SDS011;59492;45.638;11.714;2022-09-09T04:23:31;3.40;;;2.20;;
71648;SDS011;59492;45.638;11.714;2022-09-09T04:26:00;5.30;;;2.70;;
71648;SDS011;59492;45.638;11.714;2022-09-09T04:28:29;4.20;;;2.30;;
71648;SDS011;59492;45.638;11.714;2022-09-09T04:31:03;4.90;;;2.50;;
71648;SDS011;59492;45.638;11.714;2022-09-09T04:33:34;5.70;;;2.30;;
71648;SDS011;59492;45.638;11.714;2022-09-09T04:36:07;4.70;;;2.40;;
71648;SDS011;59492;45.638;11.714;2022-09-09T04:38:41;4.30;;;2.50;;
71648;SDS011;59492;45.638;11.714;2022-09-09T04:41:15;2.80;;;2.00;;
71648;SDS011;59492;45.638;11.714;2022-09-09T04:43:41;2.90;;;2.20;;
71648;SDS011;59492;45.638;11.714;2022-09-09T04:46:07;3.50;;;2.30;;
71648;SDS011;59492;45.638;11.714;2022-09-09T04:48:33;2.90;;;2.20;;
71648;SDS011;59492;45.638;11.714;2022-09-09T04:51:02;2.50;;;2.10;;
71648;SDS011;59492;45.638;11.714;2022-09-09T04:53:29;5.80;;;2.40;;
71648;SDS011;59492;45.638;11.714;2022-09-09T04:56:05;8.00;;;2.60;;
71648;SDS011;59492;45.638;11.714;2022-09-09T04:58:33;5.00;;;2.30;;
71648;SDS011;59492;45.638;11.714;2022-09-09T05:01:17;3.40;;;2.40;;
71648;SDS011;59492;45.638;11.714;2022-09-09T05:03:44;3.20;;;2.30;;
71648;SDS011;59492;45.638;11.714;2022-09-09T05:06:11;5.50;;;2.50;;
71648;SDS011;59492;45.638;11.714;2022-09-09T05:08:40;4.50;;;2.30;;
71648;SDS011;59492;45.638;11.714;2022-09-09T05:11:14;3.90;;;2.60;;
71648;SDS011;59492;45.638;11.714;2022-09-09T05:13:42;3.80;;;2.30;;
71648;SDS011;59492;45.638;11.714;2022-09-09T05:16:13;4.30;;;2.50;;
71648;SDS011;59492;45.638;11.714;2022-09-09T05:18:41;6.00;;;2.40;;
71648;SDS011;59492;45.638;11.714;2022-09-09T05:21:08;4.20;;;2.50;;
71648;SDS011;59492;45.638;11.714;2022-09-09T05:23:35;3.00;;;2.50;;
71648;SDS011;59492;45.638;11.714;2022-09-09T05:26:04;5.70;;;2.70;;
71648;SDS011;59492;45.638;11.714;2022-09-09T05:28:43;4.30;;;2.40;;
71648;SDS011;59492;45.638;11.714;2022-09-09T05:31:13;5.10;;;2.80;;
71648;SDS011;59492;45.638;11.714;2022-09-09T05:33:41;5.20;;;2.60;;
71648;SDS011;59492;45.638;11.714;2022-09-09T05:36:12;2.20;;;2.00;;
71648;SDS011;59492;45.638;11.714;2022-09-09T05:38:40;3.10;;;2.40;;
71648;SDS011;59492;45.638;11.714;2022-09-09T05:41:07;4.60;;;2.60;;
71648;SDS011;59492;45.638;11.714;2022-09-09T05:43:36;4.00;;;2.40;;
71648;SDS011;59492;45.638;11.714;2022-09-09T05:46:04;7.20;;;2.90;;
71648;SDS011;59492;45.638;11.714;2022-09-09T05:48:38;3.50;;;2.50;;
71648;SDS011;59492;45.638;11.714;2022-09-09T05:51:10;5.40;;;2.60;;
71648;SDS011;59492;45.638;11.714;2022-09-09T05:53:37;6.50;;;2.60;;
71648;SDS011;59492;45.638;11.714;2022-09-09T05:56:04;4.90;;;2.50;;
71648;SDS011;59492;45.638;11.714;2022-09-09T05:58:33;4.20;;;2.60;;
71648;SDS011;59492;45.638;11.714;2022-09-09T06:01:00;5.90;;;2.60;;
71648;SDS011;59492;45.638;11.714;2022-09-09T06:03:27;2.90;;;2.50;;
71648;SDS011;59492;45.638;11.714;2022-09-09T06:06:00;5.00;;;2.60;;
71648;SDS011;59492;45.638;11.714;2022-09-09T06:08:27;3.70;;;2.60;;
71648;SDS011;59492;45.638;11.714;2022-09-09T06:10:53;4.60;;;2.60;;
71648;SDS011;59492;45.638;11.714;2022-09-09T06:13:19;4.20;;;2.50;;
71648;SDS011;59492;45.638;11.714;2022-09-09T06:15:51;4.60;;;2.60;;
71648;SDS011;59492;45.638;11.714;2022-09-09T06:20:53;3.00;;;2.30;;
71648;SDS011;59492;45.638;11.714;2022-09-09T06:23:19;3.60;;;2.30;;
71648;SDS011;59492;45.638;11.714;2022-09-09T06:25:45;2.90;;;2.50;;
71648;SDS011;59492;45.638;11.714;2022-09-09T06:28:11;4.90;;;2.30;;
71648;SDS011;59492;45.638;11.714;2022-09-09T06:30:37;5.60;;;2.70;;
71648;SDS011;59492;45.638;11.714;2022-09-09T06:33:03;4.60;;;2.80;;
71648;SDS011;59492;45.638;11.714;2022-09-09T06:35:29;3.80;;;2.60;;
71648;SDS011;59492;45.638;11.714;2022-09-09T06:37:55;3.00;;;2.40;;
71648;SDS011;59492;45.638;11.714;2022-09-09T06:40:20;3.20;;;2.50;;
71648;SDS011;59492;45.638;11.714;2022-09-09T06:42:46;3.80;;;2.60;;
71648;SDS011;59492;45.638;11.714;2022-09-09T06:45:12;4.10;;;2.80;;
71648;SDS011;59492;45.638;11.714;2022-09-09T06:47:38;4.60;;;2.60;;
71648;SDS011;59492;45.638;11.714;2022-09-09T06:50:05;7.30;;;3.00;;
71648;SDS011;59492;45.638;11.714;2022-09-09T06:52:32;8.50;;;3.20;;
71648;SDS011;59492;45.638;11.714;2022-09-09T06:54:59;6.20;;;3.10;;
71648;SDS011;59492;45.638;11.714;2022-09-09T06:57:26;7.10;;;2.90;;
71648;SDS011;59492;45.638;11.714;2022-09-09T06:59:52;11.00;;;2.90;;
71648;SDS011;59492;45.638;11.714;2022-09-09T07:02:18;8.20;;;2.90;;
71648;SDS011;59492;45.638;11.714;2022-09-09T07:04:43;7.00;;;2.90;;
71648;SDS011;59492;45.638;11.714;2022-09-09T07:07:09;3.50;;;2.60;;
71648;SDS011;59492;45.638;11.714;2022-09-09T07:09:37;7.20;;;3.20;;
71648;SDS011;59492;45.638;11.714;2022-09-09T07:12:02;5.30;;;3.10;;
71648;SDS011;59492;45.638;11.714;2022-09-09T07:14:30;5.80;;;2.70;;
71648;SDS011;59492;45.638;11.714;2022-09-09T07:16:56;9.10;;;2.50;;
71648;SDS011;59492;45.638;11.714;2022-09-09T07:19:22;6.10;;;2.70;;
71648;SDS011;59492;45.638;11.714;2022-09-09T07:21:48;7.80;;;3.40;;
71648;SDS011;59492;45.638;11.714;2022-09-09T07:24:14;11.10;;;3.90;;
71648;SDS011;59492;45.638;11.714;2022-09-09T07:26:40;10.90;;;4.60;;
71648;SDS011;59492;45.638;11.714;2022-09-09T07:29:07;10.10;;;4.10;;
71648;SDS011;59492;45.638;11.714;2022-09-09T07:31:34;9.00;;;4.10;;
71648;SDS011;59492;45.638;11.714;2022-09-09T07:34:02;10.20;;;3.70;;
71648;SDS011;59492;45.638;11.714;2022-09-09T07:36:36;7.20;;;3.60;;
71648;SDS011;59492;45.638;11.714;2022-09-09T07:39:04;10.20;;;4.10;;
71648;SDS011;59492;45.638;11.714;2022-09-09T07:41:34;6.40;;;3.40;;
71648;SDS011;59492;45.638;11.714;2022-09-09T07:44:06;6.10;;;3.40;;
71648;SDS011;59492;45.638;11.714;2022-09-09T07:46:36;6.40;;;3.10;;
71648;SDS011;59492;45.638;11.714;2022-09-09T07:49:04;5.80;;;3.10;;
71648;SDS011;59492;45.638;11.714;2022-09-09T07:51:32;5.00;;;3.10;;
71648;SDS011;59492;45.638;11.714;2022-09-09T07:54:01;15.40;;;3.50;;
71648;SDS011;59492;45.638;11.714;2022-09-09T07:56:29;16.20;;;3.40;;
71648;SDS011;59492;45.638;11.714;2022-09-09T07:58:56;8.00;;;3.10;;
71648;SDS011;59492;45.638;11.714;2022-09-09T08:01:31;10.90;;;3.30;;
71648;SDS011;59492;45.638;11.714;2022-09-09T08:04:12;10.00;;;3.50;;
71648;SDS011;59492;45.638;11.714;2022-09-09T08:06:41;11.40;;;3.60;;
71648;SDS011;59492;45.638;11.714;2022-09-09T08:09:11;7.40;;;3.40;;
71648;SDS011;59492;45.638;11.714;2022-09-09T08:11:38;7.90;;;3.40;;
71648;SDS011;59492;45.638;11.714;2022-09-09T08:14:05;7.10;;;3.30;;
71648;SDS011;59492;45.638;11.714;2022-09-09T08:16:33;8.10;;;3.30;;
71648;SDS011;59492;45.638;11.714;2022-09-09T08:19:01;6.20;;;3.10;;
71648;SDS011;59492;45.638;11.714;2022-09-09T08:21:28;6.70;;;3.20;;
71648;SDS011;59492;45.638;11.714;2022-09-09T08:23:57;6.50;;;3.80;;
71648;SDS011;59492;45.638;11.714;2022-09-09T08:26:25;6.90;;;3.40;;
71648;SDS011;59492;45.638;11.714;2022-09-09T08:29:03;7.30;;;3.10;;
71648;SDS011;59492;45.638;11.714;2022-09-09T08:31:33;7.60;;;3.40;;
71648;SDS011;59492;45.638;11.714;2022-09-09T08:34:04;4.90;;;3.30;;
71648;SDS011;59492;45.638;11.714;2022-09-09T08:36:43;6.50;;;3.20;;
71648;SDS011;59492;45.638;11.714;2022-09-09T08:39:10;6.10;;;3.20;;
71648;SDS011;59492;45.638;11.714;2022-09-09T08:50:22;6.00;;;3.30;;
71648;SDS011;59492;45.638;11.714;2022-09-09T08:58:04;6.10;;;3.50;;
71648;SDS011;59492;45.638;11.714;2022-09-09T09:00:57;8.30;;;3.90;;
71648;SDS011;59492;45.638;11.714;2022-09-09T09:09:09;5.70;;;3.30;;
71648;SDS011;59492;45.638;11.714;2022-09-09T09:12:07;7.20;;;3.40;;
71648;SDS011;59492;45.638;11.714;2022-09-09T09:14:36;8.20;;;3.80;;
71648;SDS011;59492;45.638;11.714;2022-09-09T09:17:04;5.60;;;3.70;;
71648;SDS011;59492;45.638;11.714;2022-09-09T09:19:33;11.00;;;3.50;;
71648;SDS011;59492;45.638;11.714;2022-09-09T09:22:05;12.40;;;3.70;;
71648;SDS011;59492;45.638;11.714;2022-09-09T09:24:55;8.90;;;3.60;;
71648;SDS011;59492;45.638;11.714;2022-09-09T09:27:34;6.70;;;3.50;;
71648;SDS011;59492;45.638;11.714;2022-09-09T09:30:18;8.80;;;3.60;;
71648;SDS011;59492;45.638;11.714;2022-09-09T09:32:56;6.80;;;3.40;;
71648;SDS011;59492;45.638;11.714;2022-09-09T09:35:39;9.70;;;3.20;;
71648;SDS011;59492;45.638;11.714;2022-09-09T09:38:18;7.50;;;3.70;;
71648;SDS011;59492;45.638;11.714;2022-09-09T09:40:54;5.80;;;3.10;;
71648;SDS011;59492;45.638;11.714;2022-09-09T09:43:30;9.20;;;3.50;;
71648;SDS011;59492;45.638;11.714;2022-09-09T09:45:58;7.70;;;3.40;;
71648;SDS011;59492;45.638;11.714;2022-09-09T09:48:25;12.60;;;3.60;;
71648;SDS011;59492;45.638;11.714;2022-09-09T09:55:59;4.00;;;2.80;;
71648;SDS011;59492;45.638;11.714;2022-09-09T09:58:29;8.30;;;3.10;;
71648;SDS011;59492;45.638;11.714;2022-09-09T10:00:58;4.40;;;2.60;;
71648;SDS011;59492;45.638;11.714;2022-09-09T10:03:27;5.70;;;2.70;;
71648;SDS011;59492;45.638;11.714;2022-09-09T10:05:54;3.70;;;2.10;;
71648;SDS011;59492;45.638;11.714;2022-09-09T10:08:21;7.20;;;2.80;;
71648;SDS011;59492;45.638;11.714;2022-09-09T10:13:42;6.10;;;3.40;;
71648;SDS011;59492;45.638;11.714;2022-09-09T10:21:42;5.60;;;2.80;;
71648;SDS011;59492;45.638;11.714;2022-09-09T10:26:55;6.40;;;3.70;;
71648;SDS011;59492;45.638;11.714;2022-09-09T10:35:12;4.40;;;2.60;;
71648;SDS011;59492;45.638;11.714;2022-09-09T10:46:34;4.50;;;2.60;;
71648;SDS011;59492;45.638;11.714;2022-09-09T10:51:45;6.70;;;2.30;;
71648;SDS011;59492;45.638;11.714;2022-09-09T10:57:39;6.30;;;2.20;;
71648;SDS011;59492;45.638;11.714;2022-09-09T11:00:19;5.90;;;2.40;;
71648;SDS011;59492;45.638;11.714;2022-09-09T11:02:55;7.20;;;2.20;;
71648;SDS011;59492;45.638;11.714;2022-09-09T11:05:35;3.40;;;2.10;;
71648;SDS011;59492;45.638;11.714;2022-09-09T11:08:18;3.20;;;2.10;;
71648;SDS011;59492;45.638;11.714;2022-09-09T11:10:50;2.20;;;1.80;;
71648;SDS011;59492;45.638;11.714;2022-09-09T11:13:34;9.00;;;2.40;;
71648;SDS011;59492;45.638;11.714;2022-09-09T11:16:46;4.20;;;2.00;;
71648;SDS011;59492;45.638;11.714;2022-09-09T11:21:56;3.10;;;1.90;;
71648;SDS011;59492;45.638;11.714;2022-09-09T11:38:46;4.00;;;2.20;;
71648;SDS011;59492;45.638;11.714;2022-09-09T11:41:16;3.40;;;2.40;;
71648;SDS011;59492;45.638;11.714;2022-09-09T11:43:46;6.80;;;2.10;;
71648;SDS011;59492;45.638;11.714;2022-09-09T11:49:04;3.70;;;2.00;;
71648;SDS011;59492;45.638;11.714;2022-09-09T11:51:32;4.20;;;2.40;;
71648;SDS011;59492;45.638;11.714;2022-09-09T11:54:01;9.80;;;2.60;;
71648;SDS011;59492;45.638;11.714;2022-09-09T11:56:45;4.80;;;2.30;;
71648;SDS011;59492;45.638;11.714;2022-09-09T11:59:28;5.00;;;2.30;;
71648;SDS011;59492;45.638;11.714;2022-09-09T12:02:03;4.10;;;2.10;;
71648;SDS011;59492;45.638;11.714;2022-09-09T12:04:42;4.70;;;2.40;;
71648;SDS011;59492;45.638;11.714;2022-09-09T12:12:45;5.60;;;2.60;;
71648;SDS011;59492;45.638;11.714;2022-09-09T12:17:44;7.60;;;2.60;;
71648;SDS011;59492;45.638;11.714;2022-09-09T12:23:13;9.30;;;2.90;;
71648;SDS011;59492;45.638;11.714;2022-09-09T12:31:21;11.50;;;2.90;;
71648;SDS011;59492;45.638;11.714;2022-09-09T12:34:14;8.20;;;3.10;;
71648;SDS011;59492;45.638;11.714;2022-09-09T12:36:44;11.20;;;3.10;;
71648;SDS011;59492;45.638;11.714;2022-09-09T12:39:22;11.30;;;2.90;;
71648;SDS011;59492;45.638;11.714;2022-09-09T12:42:03;8.10;;;2.50;;
71648;SDS011;59492;45.638;11.714;2022-09-09T12:44:29;5.90;;;2.20;;
71648;SDS011;59492;45.638;11.714;2022-09-09T12:46:56;7.40;;;2.20;;
71648;SDS011;59492;45.638;11.714;2022-09-09T12:49:27;5.10;;;2.40;;
71648;SDS011;59492;45.638;11.714;2022-09-09T12:52:12;6.40;;;2.50;;
71648;SDS011;59492;45.638;11.714;2022-09-09T12:54:48;5.70;;;2.60;;
71648;SDS011;59492;45.638;11.714;2022-09-09T12:57:16;8.90;;;3.10;;
71648;SDS011;59492;45.638;11.714;2022-09-09T12:59:43;5.50;;;2.30;;
71648;SDS011;59492;45.638;11.714;2022-09-09T13:02:20;6.60;;;2.60;;
71648;SDS011;59492;45.638;11.714;2022-09-09T13:04:47;5.40;;;2.50;;
71648;SDS011;59492;45.638;11.714;2022-09-09T13:07:25;7.90;;;2.50;;
71648;SDS011;59492;45.638;11.714;2022-09-09T13:09:55;4.10;;;2.30;;
71648;SDS011;59492;45.638;11.714;2022-09-09T13:12:22;6.70;;;2.60;;
71648;SDS011;59492;45.638;11.714;2022-09-09T13:14:49;8.10;;;2.50;;
71648;SDS011;59492;45.638;11.714;2022-09-09T13:17:22;3.70;;;2.10;;
71648;SDS011;59492;45.638;11.714;2022-09-09T13:19:50;3.70;;;2.20;;
71648;SDS011;59492;45.638;11.714;2022-09-09T13:22:30;7.00;;;1.90;;
71648;SDS011;59492;45.638;11.714;2022-09-09T13:25:00;4.00;;;1.90;;
71648;SDS011;59492;45.638;11.714;2022-09-09T13:29:59;4.70;;;2.00;;
71648;SDS011;59492;45.638;11.714;2022-09-09T13:32:26;5.40;;;1.90;;
71648;SDS011;59492;45.638;11.714;2022-09-09T13:34:53;2.50;;;1.70;;
71648;SDS011;59492;45.638;11.714;2022-09-09T13:37:34;3.70;;;1.90;;
71648;SDS011;59492;45.638;11.714;2022-09-09T13:40:16;6.80;;;1.70;;
71648;SDS011;59492;45.638;11.714;2022-09-09T13:42:54;5.30;;;1.80;;
71648;SDS011;59492;45.638;11.714;2022-09-09T13:45:24;4.70;;;1.70;;
71648;SDS011;59492;45.638;11.714;2022-09-09T13:47:54;6.80;;;1.70;;
71648;SDS011;59492;45.638;11.714;2022-09-09T13:52:56;3.00;;;1.50;;
71648;SDS011;59492;45.638;11.714;2022-09-09T13:55:24;5.30;;;1.60;;
71648;SDS011;59492;45.638;11.714;2022-09-09T13:57:52;3.00;;;1.60;;
71648;SDS011;59492;45.638;11.714;2022-09-09T14:00:20;2.60;;;1.30;;
71648;SDS011;59492;45.638;11.714;2022-09-09T14:02:50;3.60;;;1.40;;
71648;SDS011;59492;45.638;11.714;2022-09-09T14:05:19;2.30;;;1.10;;
71648;SDS011;59492;45.638;11.714;2022-09-09T14:07:44;2.50;;;1.40;;
71648;SDS011;59492;45.638;11.714;2022-09-09T14:10:11;6.90;;;1.40;;
71648;SDS011;59492;45.638;11.714;2022-09-09T14:12:37;2.10;;;1.30;;
71648;SDS011;59492;45.638;11.714;2022-09-09T14:15:04;3.70;;;1.60;;
71648;SDS011;59492;45.638;11.714;2022-09-09T14:17:30;2.60;;;1.30;;
71648;SDS011;59492;45.638;11.714;2022-09-09T14:19:56;4.20;;;1.50;;
71648;SDS011;59492;45.638;11.714;2022-09-09T14:22:22;6.10;;;1.30;;
71648;SDS011;59492;45.638;11.714;2022-09-09T14:24:48;2.30;;;1.30;;
71648;SDS011;59492;45.638;11.714;2022-09-09T14:27:16;8.10;;;1.80;;
71648;SDS011;59492;45.638;11.714;2022-09-09T14:29:43;6.80;;;1.50;;
71648;SDS011;59492;45.638;11.714;2022-09-09T14:32:09;8.90;;;1.70;;
71648;SDS011;59492;45.638;11.714;2022-09-09T14:34:35;4.30;;;1.20;;
71648;SDS011;59492;45.638;11.714;2022-09-09T14:37:01;5.90;;;1.10;;
71648;SDS011;59492;45.638;11.714;2022-09-09T14:39:27;4.90;;;1.40;;
71648;SDS011;59492;45.638;11.714;2022-09-09T14:41:52;3.20;;;1.40;;
71648;SDS011;59492;45.638;11.714;2022-09-09T14:44:18;3.80;;;1.60;;
71648;SDS011;59492;45.638;11.714;2022-09-09T14:46:44;2.20;;;1.50;;
71648;SDS011;59492;45.638;11.714;2022-09-09T14:49:09;4.90;;;1.70;;
71648;SDS011;59492;45.638;11.714;2022-09-09T14:51:38;2.20;;;1.30;;
71648;SDS011;59492;45.638;11.714;2022-09-09T14:54:04;2.90;;;1.30;;
71648;SDS011;59492;45.638;11.714;2022-09-09T14:56:31;3.30;;;1.50;;
71648;SDS011;59492;45.638;11.714;2022-09-09T14:59:00;2.40;;;1.30;;
71648;SDS011;59492;45.638;11.714;2022-09-09T15:01:27;3.30;;;1.30;;
71648;SDS011;59492;45.638;11.714;2022-09-09T15:03:56;2.50;;;1.30;;
71648;SDS011;59492;45.638;11.714;2022-09-09T15:06:27;3.40;;;1.50;;
71648;SDS011;59492;45.638;11.714;2022-09-09T15:08:55;3.40;;;1.70;;
71648;SDS011;59492;45.638;11.714;2022-09-09T15:11:27;4.90;;;1.40;;
71648;SDS011;59492;45.638;11.714;2022-09-09T15:13:57;3.40;;;1.50;;
71648;SDS011;59492;45.638;11.714;2022-09-09T15:16:25;4.90;;;1.60;;
71648;SDS011;59492;45.638;11.714;2022-09-09T15:18:53;3.70;;;1.60;;
71648;SDS011;59492;45.638;11.714;2022-09-09T15:21:20;4.20;;;1.50;;
71648;SDS011;59492;45.638;11.714;2022-09-09T15:23:48;3.90;;;1.70;;
71648;SDS011;59492;45.638;11.714;2022-09-09T15:26:14;5.90;;;1.70;;
71648;SDS011;59492;45.638;11.714;2022-09-09T15:28:40;2.20;;;1.50;;
71648;SDS011;59492;45.638;11.714;2022-09-09T15:31:15;2.60;;;1.60;;
71648;SDS011;59492;45.638;11.714;2022-09-09T15:33:48;2.50;;;1.60;;
71648;SDS011;59492;45.638;11.714;2022-09-09T15:36:21;4.60;;;1.50;;
71648;SDS011;59492;45.638;11.714;2022-09-09T15:38:48;6.60;;;1.50;;
71648;SDS011;59492;45.638;11.714;2022-09-09T15:41:14;2.20;;;1.50;;
71648;SDS011;59492;45.638;11.714;2022-09-09T15:43:45;3.50;;;1.70;;
71648;SDS011;59492;45.638;11.714;2022-09-09T15:49:17;5.40;;;1.60;;
71648;SDS011;59492;45.638;11.714;2022-09-09T15:51:51;2.70;;;1.50;;
71648;SDS011;59492;45.638;11.714;2022-09-09T15:54:21;2.60;;;1.60;;
71648;SDS011;59492;45.638;11.714;2022-09-09T15:56:57;5.10;;;1.80;;
71648;SDS011;59492;45.638;11.714;2022-09-09T15:59:25;3.20;;;1.70;;
71648;SDS011;59492;45.638;11.714;2022-09-09T16:01:57;4.40;;;1.50;;
71648;SDS011;59492;45.638;11.714;2022-09-09T16:04:25;4.30;;;1.60;;
71648;SDS011;59492;45.638;11.714;2022-09-09T16:06:55;2.90;;;1.60;;
71648;SDS011;59492;45.638;11.714;2022-09-09T16:09:26;3.00;;;1.80;;
71648;SDS011;59492;45.638;11.714;2022-09-09T16:11:55;3.50;;;1.40;;
71648;SDS011;59492;45.638;11.714;2022-09-09T16:14:21;2.30;;;1.60;;
71648;SDS011;59492;45.638;11.714;2022-09-09T16:16:47;2.50;;;1.50;;
71648;SDS011;59492;45.638;11.714;2022-09-09T16:19:13;3.30;;;1.60;;
71648;SDS011;59492;45.638;11.714;2022-09-09T16:21:40;4.30;;;1.70;;
71648;SDS011;59492;45.638;11.714;2022-09-09T16:24:08;3.60;;;2.10;;
71648;SDS011;59492;45.638;11.714;2022-09-09T16:26:36;6.50;;;2.20;;
71648;SDS011;59492;45.638;11.714;2022-09-09T16:29:04;5.90;;;2.50;;
71648;SDS011;59492;45.638;11.714;2022-09-09T16:31:30;6.60;;;2.60;;
71648;SDS011;59492;45.638;11.714;2022-09-09T16:33:57;9.40;;;3.60;;
71648;SDS011;59492;45.638;11.714;2022-09-09T16:36:26;6.70;;;3.70;;
71648;SDS011;59492;45.638;11.714;2022-09-09T16:38:59;7.50;;;3.40;;
71648;SDS011;59492;45.638;11.714;2022-09-09T16:41:27;6.00;;;3.20;;
71648;SDS011;59492;45.638;11.714;2022-09-09T16:43:54;6.50;;;4.00;;
71648;SDS011;59492;45.638;11.714;2022-09-09T16:46:21;5.80;;;4.40;;
71648;SDS011;59492;45.638;11.714;2022-09-09T16:48:49;9.60;;;5.00;;
71648;SDS011;59492;45.638;11.714;2022-09-09T16:51:26;5.90;;;5.30;;
71648;SDS011;59492;45.638;11.714;2022-09-09T16:53:53;8.60;;;5.50;;
71648;SDS011;59492;45.638;11.714;2022-09-09T16:56:22;9.10;;;5.80;;
71648;SDS011;59492;45.638;11.714;2022-09-09T16:58:55;9.20;;;5.70;;
71648;SDS011;59492;45.638;11.714;2022-09-09T17:01:23;10.70;;;5.60;;
71648;SDS011;59492;45.638;11.714;2022-09-09T17:03:56;8.70;;;5.10;;
71648;SDS011;59492;45.638;11.714;2022-09-09T17:06:23;9.70;;;4.90;;
71648;SDS011;59492;45.638;11.714;2022-09-09T17:08:58;6.70;;;4.50;;
71648;SDS011;59492;45.638;11.714;2022-09-09T17:11:28;11.70;;;4.90;;
71648;SDS011;59492;45.638;11.714;2022-09-09T17:13:55;9.70;;;5.00;;
71648;SDS011;59492;45.638;11.714;2022-09-09T17:16:23;9.40;;;5.20;;
71648;SDS011;59492;45.638;11.714;2022-09-09T17:18:52;8.30;;;5.20;;
71648;SDS011;59492;45.638;11.714;2022-09-09T17:21:20;10.80;;;6.60;;
71648;SDS011;59492;45.638;11.714;2022-09-09T17:23:48;12.40;;;5.70;;